sensor_id;sensor_type;location;lat;lon;timestamp;temperature;humidity
20773;DHT22;10546;50.674;4.616;2023-10-09T05:37:14;16.00;99.90
20773;DHT22;10546;50.674;4.616;2023-10-09T05:40:15;15.90;99.90
20773;DHT22;10546;50.674;4.616;2023-10-09T05:42:46;15.90;99.90
20773;DHT22;10546;50.674;4.616;2023-10-09T05:45:29;15.90;99.90
20773;DHT22;10546;50.674;4.616;2023-10-09T05:48:38;15.80;99.90
20773;DHT22;10546;50.674;4.616;2023-10-09T05:51:13;15.90;99.90
20773;DHT22;10546;50.674;4.616;2023-10-09T06:24:17;16.00;99.90
20773;DHT22;10546;50.674;4.616;2023-10-09T06:33:56;16.00;99.90
20773;DHT22;10546;50.674;4.616;2023-10-09T06:37:24;16.20;99.90
20773;DHT22;10546;50.674;4.616;2023-10-09T06:43:05;16.30;99.90
20773;DHT22;10546;50.674;4.616;2023-10-09T06:45:53;16.30;99.90
20773;DHT22;10546;50.674;4.616;2023-10-09T06:48:57;16.20;99.90
20773;DHT22;10546;50.674;4.616;2023-10-09T06:51:55;16.20;99.90
20773;DHT22;10546;50.674;4.616;2023-10-09T06:55:14;16.20;99.90
20773;DHT22;10546;50.674;4.616;2023-10-09T06:58:24;16.20;99.90
20773;DHT22;10546;50.674;4.616;2023-10-09T07:01:51;16.20;99.90
20773;DHT22;10546;50.674;4.616;2023-10-09T07:05:02;16.20;99.90
20773;DHT22;10546;50.674;4.616;2023-10-09T07:07:57;16.20;99.90
20773;DHT22;10546;50.674;4.616;2023-10-09T07:11:18;16.20;99.90
20773;DHT22;10546;50.674;4.616;2023-10-09T07:14:22;16.20;99.90
20773;DHT22;10546;50.674;4.616;2023-10-09T07:17:40;16.20;99.90
20773;DHT22;10546;50.674;4.616;2023-10-09T07:20:51;16.30;99.90
20773;DHT22;10546;50.674;4.616;2023-10-09T07:23:47;16.30;99.90
20773;DHT22;10546;50.674;4.616;2023-10-09T07:26:45;16.50;99.90
20773;DHT22;10546;50.674;4.616;2023-10-09T07:29:21;16.60;99.90
20773;DHT22;10546;50.674;4.616;2023-10-09T07:31:54;16.70;99.90
20773;DHT22;10546;50.674;4.616;2023-10-09T07:34:52;16.90;99.90
20773;DHT22;10546;50.674;4.616;2023-10-09T07:37:39;17.10;99.90
20773;DHT22;10546;50.674;4.616;2023-10-09T07:40:12;17.30;99.90
20773;DHT22;10546;50.674;4.616;2023-10-09T07:43:23;17.50;99.90
20773;DHT22;10546;50.674;4.616;2023-10-09T07:46:47;18.10;99.90
20773;DHT22;10546;50.674;4.616;2023-10-09T07:53:31;18.80;99.90
20773;DHT22;10546;50.674;4.616;2023-10-09T07:56:41;18.80;99.90
20773;DHT22;10546;50.674;4.616;2023-10-09T07:59:46;18.60;99.90
20773;DHT22;10546;50.674;4.616;2023-10-09T08:03:10;18.60;99.90
20773;DHT22;10546;50.674;4.616;2023-10-09T08:06:27;18.60;99.90
20773;DHT22;10546;50.674;4.616;2023-10-09T08:09:19;18.40;99.90
20773;DHT22;10546;50.674;4.616;2023-10-09T08:12:11;18.40;99.90
20773;DHT22;10546;50.674;4.616;2023-10-09T08:15:12;18.70;99.90
20773;DHT22;10546;50.674;4.616;2023-10-09T08:21:21;19.00;99.90
20773;DHT22;10546;50.674;4.616;2023-10-09T08:24:25;19.20;99.90
20773;DHT22;10546;50.674;4.616;2023-10-09T08:27:42;19.20;99.90
20773;DHT22;10546;50.674;4.616;2023-10-09T08:30:34;19.00;99.90
20773;DHT22;10546;50.674;4.616;2023-10-09T08:33:37;18.60;99.90
20773;DHT22;10546;50.674;4.616;2023-10-09T08:36:54;18.80;99.90
20773;DHT22;10546;50.674;4.616;2023-10-09T08:39:41;18.70;99.90
20773;DHT22;10546;50.674;4.616;2023-10-09T08:42:19;18.60;99.90
20773;DHT22;10546;50.674;4.616;2023-10-09T08:45:24;18.70;99.90
20773;DHT22;10546;50.674;4.616;2023-10-09T08:47:56;18.70;99.90
20773;DHT22;10546;50.674;4.616;2023-10-09T08:54:18;18.90;99.90
20773;DHT22;10546;50.674;4.616;2023-10-09T08:57:24;19.00;99.90
20773;DHT22;10546;50.674;4.616;2023-10-09T09:00:46;19.00;99.90
20773;DHT22;10546;50.674;4.616;2023-10-09T09:03:47;19.20;99.90
20773;DHT22;10546;50.674;4.616;2023-10-09T09:09:33;19.30;99.90
20773;DHT22;10546;50.674;4.616;2023-10-09T09:12:24;19.20;99.90
20773;DHT22;10546;50.674;4.616;2023-10-09T09:14:50;19.30;99.90
20773;DHT22;10546;50.674;4.616;2023-10-09T09:18:09;19.30;99.90
20773;DHT22;10546;50.674;4.616;2023-10-09T09:20:41;19.10;99.90
20773;DHT22;10546;50.674;4.616;2023-10-09T09:23:13;19.00;99.90
20773;DHT22;10546;50.674;4.616;2023-10-09T09:25:50;19.00;99.90
20773;DHT22;10546;50.674;4.616;2023-10-09T09:29:05;19.10;99.90
20773;DHT22;10546;50.674;4.616;2023-10-09T09:31:39;19.10;99.90
20773;DHT22;10546;50.674;4.616;2023-10-09T09:34:50;19.20;99.90
20773;DHT22;10546;50.674;4.616;2023-10-09T09:38:05;19.40;99.90
20773;DHT22;10546;50.674;4.616;2023-10-09T09:41:13;19.50;99.90
20773;DHT22;10546;50.674;4.616;2023-10-09T09:44:20;19.60;99.90
20773;DHT22;10546;50.674;4.616;2023-10-09T09:47:19;19.70;99.90
20773;DHT22;10546;50.674;4.616;2023-10-09T09:50:21;19.80;99.90
20773;DHT22;10546;50.674;4.616;2023-10-09T09:52:54;20.10;99.90
20773;DHT22;10546;50.674;4.616;2023-10-09T09:56:06;20.20;99.90
20773;DHT22;10546;50.674;4.616;2023-10-09T09:59:11;20.20;99.90
20773;DHT22;10546;50.674;4.616;2023-10-09T10:02:10;20.10;99.90
20773;DHT22;10546;50.674;4.616;2023-10-09T10:04:55;20.10;99.90
20773;DHT22;10546;50.674;4.616;2023-10-09T10:07:30;20.10;99.90
20773;DHT22;10546;50.674;4.616;2023-10-09T10:10:34;20.30;99.90
20773;DHT22;10546;50.674;4.616;2023-10-09T10:17:08;20.50;99.90
20773;DHT22;10546;50.674;4.616;2023-10-09T10:20:06;20.40;99.90
20773;DHT22;10546;50.674;4.616;2023-10-09T10:23:18;20.40;99.90
20773;DHT22;10546;50.674;4.616;2023-10-09T10:26:20;20.50;99.90
20773;DHT22;10546;50.674;4.616;2023-10-09T10:29:34;20.60;99.90
20773;DHT22;10546;50.674;4.616;2023-10-09T10:32:07;20.60;99.90
20773;DHT22;10546;50.674;4.616;2023-10-09T10:34:52;20.60;99.90
20773;DHT22;10546;50.674;4.616;2023-10-09T10:37:41;20.80;99.90
20773;DHT22;10546;50.674;4.616;2023-10-09T10:41:11;20.90;99.90
20773;DHT22;10546;50.674;4.616;2023-10-09T10:44:26;21.00;99.90
20773;DHT22;10546;50.674;4.616;2023-10-09T10:47:37;21.10;99.90
20773;DHT22;10546;50.674;4.616;2023-10-09T10:50:19;21.20;99.90
20773;DHT22;10546;50.674;4.616;2023-10-09T10:53:30;21.40;99.90
20773;DHT22;10546;50.674;4.616;2023-10-09T10:56:38;21.80;99.90
20773;DHT22;10546;50.674;4.616;2023-10-09T10:59:40;21.70;99.90
20773;DHT22;10546;50.674;4.616;2023-10-09T11:02:28;21.50;99.90
20773;DHT22;10546;50.674;4.616;2023-10-09T11:05:25;21.80;99.90
20773;DHT22;10546;50.674;4.616;2023-10-09T11:08:27;22.00;99.90
20773;DHT22;10546;50.674;4.616;2023-10-09T11:11:31;22.10;99.90
20773;DHT22;10546;50.674;4.616;2023-10-09T11:14:51;22.20;99.90
20773;DHT22;10546;50.674;4.616;2023-10-09T11:21:14;22.40;99.90
20773;DHT22;10546;50.674;4.616;2023-10-09T11:24:11;22.60;99.90
20773;DHT22;10546;50.674;4.616;2023-10-09T11:27:30;22.40;99.90
20773;DHT22;10546;50.674;4.616;2023-10-09T11:30:31;22.60;99.90
20773;DHT22;10546;50.674;4.616;2023-10-09T11:33:06;22.50;99.90
20773;DHT22;10546;50.674;4.616;2023-10-09T11:35:40;22.30;99.90
20773;DHT22;10546;50.674;4.616;2023-10-09T11:38:08;22.20;99.90
20773;DHT22;10546;50.674;4.616;2023-10-09T11:40:47;22.20;99.90
20773;DHT22;10546;50.674;4.616;2023-10-09T11:43:45;22.00;99.90
20773;DHT22;10546;50.674;4.616;2023-10-09T11:46:17;21.90;99.90
20773;DHT22;10546;50.674;4.616;2023-10-09T11:49:04;21.90;99.90
20773;DHT22;10546;50.674;4.616;2023-10-09T11:52:05;22.00;99.90
20773;DHT22;10546;50.674;4.616;2023-10-09T11:54:34;22.20;99.90
20773;DHT22;10546;50.674;4.616;2023-10-09T11:57:02;22.20;99.90
20773;DHT22;10546;50.674;4.616;2023-10-09T11:59:28;22.40;99.90
20773;DHT22;10546;50.674;4.616;2023-10-09T12:02:00;22.40;99.90
20773;DHT22;10546;50.674;4.616;2023-10-09T12:04:27;22.50;99.90
20773;DHT22;10546;50.674;4.616;2023-10-09T12:06:56;22.60;99.90
20773;DHT22;10546;50.674;4.616;2023-10-09T12:09:32;22.80;99.90
20773;DHT22;10546;50.674;4.616;2023-10-09T12:12:04;22.80;99.90
20773;DHT22;10546;50.674;4.616;2023-10-09T12:14:33;22.80;99.90
20773;DHT22;10546;50.674;4.616;2023-10-09T12:17:00;22.90;99.90
20773;DHT22;10546;50.674;4.616;2023-10-09T12:19:38;23.10;99.90
20773;DHT22;10546;50.674;4.616;2023-10-09T12:22:06;23.00;99.90
20773;DHT22;10546;50.674;4.616;2023-10-09T12:24:33;23.10;99.90
20773;DHT22;10546;50.674;4.616;2023-10-09T12:27:00;23.10;99.90
20773;DHT22;10546;50.674;4.616;2023-10-09T12:29:26;23.30;99.90
20773;DHT22;10546;50.674;4.616;2023-10-09T12:31:58;23.20;99.90
20773;DHT22;10546;50.674;4.616;2023-10-09T12:34:27;23.50;99.90
20773;DHT22;10546;50.674;4.616;2023-10-09T12:36:54;23.40;99.90
20773;DHT22;10546;50.674;4.616;2023-10-09T12:39:20;23.50;99.90
20773;DHT22;10546;50.674;4.616;2023-10-09T12:41:47;23.60;99.90
20773;DHT22;10546;50.674;4.616;2023-10-09T12:44:14;23.50;99.90
20773;DHT22;10546;50.674;4.616;2023-10-09T12:46:46;23.20;99.90
20773;DHT22;10546;50.674;4.616;2023-10-09T12:49:21;23.20;99.90
20773;DHT22;10546;50.674;4.616;2023-10-09T12:51:53;23.10;99.90
20773;DHT22;10546;50.674;4.616;2023-10-09T12:54:19;23.20;99.90
20773;DHT22;10546;50.674;4.616;2023-10-09T12:56:57;23.30;99.90
20773;DHT22;10546;50.674;4.616;2023-10-09T12:59:24;23.20;99.90
20773;DHT22;10546;50.674;4.616;2023-10-09T13:01:50;23.30;99.90
20773;DHT22;10546;50.674;4.616;2023-10-09T13:04:23;23.30;99.90
20773;DHT22;10546;50.674;4.616;2023-10-09T13:06:49;23.30;99.90
20773;DHT22;10546;50.674;4.616;2023-10-09T13:09:20;23.40;99.90
20773;DHT22;10546;50.674;4.616;2023-10-09T13:12:01;23.30;99.90
20773;DHT22;10546;50.674;4.616;2023-10-09T13:14:27;23.30;99.90
20773;DHT22;10546;50.674;4.616;2023-10-09T13:16:53;23.20;99.90
20773;DHT22;10546;50.674;4.616;2023-10-09T13:19:19;23.20;99.90
20773;DHT22;10546;50.674;4.616;2023-10-09T13:21:45;23.10;99.90
20773;DHT22;10546;50.674;4.616;2023-10-09T13:24:12;23.10;99.90
20773;DHT22;10546;50.674;4.616;2023-10-09T13:26:49;23.10;99.90
20773;DHT22;10546;50.674;4.616;2023-10-09T13:29:17;23.20;99.90
20773;DHT22;10546;50.674;4.616;2023-10-09T13:31:48;23.20;99.90
20773;DHT22;10546;50.674;4.616;2023-10-09T13:34:16;23.20;99.90
20773;DHT22;10546;50.674;4.616;2023-10-09T13:36:42;23.20;99.90
20773;DHT22;10546;50.674;4.616;2023-10-09T13:39:18;23.20;99.90
20773;DHT22;10546;50.674;4.616;2023-10-09T13:41:59;23.20;99.90
20773;DHT22;10546;50.674;4.616;2023-10-09T13:46:55;23.30;99.90
20773;DHT22;10546;50.674;4.616;2023-10-09T13:49:21;23.20;99.90
20773;DHT22;10546;50.674;4.616;2023-10-09T13:51:55;22.90;99.90
20773;DHT22;10546;50.674;4.616;2023-10-09T13:54:22;22.70;99.90
20773;DHT22;10546;50.674;4.616;2023-10-09T13:57:08;22.70;99.90
20773;DHT22;10546;50.674;4.616;2023-10-09T13:59:36;22.60;99.90
20773;DHT22;10546;50.674;4.616;2023-10-09T14:02:03;22.70;99.90
20773;DHT22;10546;50.674;4.616;2023-10-09T14:04:35;22.60;99.90
20773;DHT22;10546;50.674;4.616;2023-10-09T14:07:00;22.70;99.90
20773;DHT22;10546;50.674;4.616;2023-10-09T14:09:31;22.90;99.90
20773;DHT22;10546;50.674;4.616;2023-10-09T14:11:57;23.00;99.90
20773;DHT22;10546;50.674;4.616;2023-10-09T14:14:43;23.20;99.90
20773;DHT22;10546;50.674;4.616;2023-10-09T14:17:15;23.00;99.90
20773;DHT22;10546;50.674;4.616;2023-10-09T14:19:47;22.80;99.90
20773;DHT22;10546;50.674;4.616;2023-10-09T14:22:22;22.80;99.90
20773;DHT22;10546;50.674;4.616;2023-10-09T14:24:53;22.60;99.90
20773;DHT22;10546;50.674;4.616;2023-10-09T14:27:26;22.50;99.90
20773;DHT22;10546;50.674;4.616;2023-10-09T14:29:55;22.40;99.90
20773;DHT22;10546;50.674;4.616;2023-10-09T14:32:22;22.30;99.90
20773;DHT22;10546;50.674;4.616;2023-10-09T14:34:57;22.20;99.90
20773;DHT22;10546;50.674;4.616;2023-10-09T14:37:41;22.40;99.90
20773;DHT22;10546;50.674;4.616;2023-10-09T14:40:13;22.40;99.90
20773;DHT22;10546;50.674;4.616;2023-10-09T14:42:42;22.60;99.90
20773;DHT22;10546;50.674;4.616;2023-10-09T14:45:11;22.50;99.90
20773;DHT22;10546;50.674;4.616;2023-10-09T14:47:44;22.50;99.90
20773;DHT22;10546;50.674;4.616;2023-10-09T14:50:13;22.50;99.90
20773;DHT22;10546;50.674;4.616;2023-10-09T14:52:39;22.60;99.90
20773;DHT22;10546;50.674;4.616;2023-10-09T14:55:06;22.60;99.90
20773;DHT22;10546;50.674;4.616;2023-10-09T14:57:32;22.60;99.90
20773;DHT22;10546;50.674;4.616;2023-10-09T15:00:02;22.50;99.90
20773;DHT22;10546;50.674;4.616;2023-10-09T15:02:39;22.50;99.90
20773;DHT22;10546;50.674;4.616;2023-10-09T15:05:05;22.40;99.90
20773;DHT22;10546;50.674;4.616;2023-10-09T15:07:35;22.40;99.90
20773;DHT22;10546;50.674;4.616;2023-10-09T15:10:05;22.40;99.90
20773;DHT22;10546;50.674;4.616;2023-10-09T15:12:31;22.50;99.90
20773;DHT22;10546;50.674;4.616;2023-10-09T15:14:56;22.50;99.90
20773;DHT22;10546;50.674;4.616;2023-10-09T15:17:25;22.50;99.90
20773;DHT22;10546;50.674;4.616;2023-10-09T15:19:53;22.30;99.90
20773;DHT22;10546;50.674;4.616;2023-10-09T15:22:22;22.20;99.90
20773;DHT22;10546;50.674;4.616;2023-10-09T15:24:50;22.20;99.90
20773;DHT22;10546;50.674;4.616;2023-10-09T15:27:17;22.30;99.90
20773;DHT22;10546;50.674;4.616;2023-10-09T15:29:43;22.30;99.90
20773;DHT22;10546;50.674;4.616;2023-10-09T15:32:10;22.20;99.90
20773;DHT22;10546;50.674;4.616;2023-10-09T15:34:48;22.00;99.90
20773;DHT22;10546;50.674;4.616;2023-10-09T15:37:13;22.20;99.90
20773;DHT22;10546;50.674;4.616;2023-10-09T15:39:39;22.20;99.90
20773;DHT22;10546;50.674;4.616;2023-10-09T15:42:05;22.20;99.90
20773;DHT22;10546;50.674;4.616;2023-10-09T15:44:32;22.00;99.90
20773;DHT22;10546;50.674;4.616;2023-10-09T15:47:04;22.00;99.90
20773;DHT22;10546;50.674;4.616;2023-10-09T15:49:34;22.10;99.90
20773;DHT22;10546;50.674;4.616;2023-10-09T15:52:00;21.90;99.90
20773;DHT22;10546;50.674;4.616;2023-10-09T15:54:28;21.80;99.90
20773;DHT22;10546;50.674;4.616;2023-10-09T15:56:55;21.80;99.90
20773;DHT22;10546;50.674;4.616;2023-10-09T15:59:22;21.70;99.90
20773;DHT22;10546;50.674;4.616;2023-10-09T16:01:49;21.70;99.90
20773;DHT22;10546;50.674;4.616;2023-10-09T16:04:16;21.50;99.90
20773;DHT22;10546;50.674;4.616;2023-10-09T16:06:42;21.40;99.90
20773;DHT22;10546;50.674;4.616;2023-10-09T16:09:08;21.50;99.90
20773;DHT22;10546;50.674;4.616;2023-10-09T16:11:39;21.40;99.90
20773;DHT22;10546;50.674;4.616;2023-10-09T16:14:05;21.20;99.90
20773;DHT22;10546;50.674;4.616;2023-10-09T16:16:35;21.40;99.90
20773;DHT22;10546;50.674;4.616;2023-10-09T16:19:09;21.30;99.90
20773;DHT22;10546;50.674;4.616;2023-10-09T16:21:36;21.30;99.90
20773;DHT22;10546;50.674;4.616;2023-10-09T16:24:05;21.30;99.90
20773;DHT22;10546;50.674;4.616;2023-10-09T16:26:34;21.20;99.90
20773;DHT22;10546;50.674;4.616;2023-10-09T16:29:08;21.10;99.90
20773;DHT22;10546;50.674;4.616;2023-10-09T16:31:34;21.10;99.90
20773;DHT22;10546;50.674;4.616;2023-10-09T16:34:03;21.00;99.90
20773;DHT22;10546;50.674;4.616;2023-10-09T16:36:39;21.00;99.90
20773;DHT22;10546;50.674;4.616;2023-10-09T16:39:05;20.90;99.90
20773;DHT22;10546;50.674;4.616;2023-10-09T16:44:50;20.70;99.90
20773;DHT22;10546;50.674;4.616;2023-10-09T16:47:27;20.70;99.90
20773;DHT22;10546;50.674;4.616;2023-10-09T16:50:17;20.60;99.90
20773;DHT22;10546;50.674;4.616;2023-10-09T16:53:10;20.50;99.90
20773;DHT22;10546;50.674;4.616;2023-10-09T16:56:06;20.40;99.90
20773;DHT22;10546;50.674;4.616;2023-10-09T16:58:50;20.40;99.90
20773;DHT22;10546;50.674;4.616;2023-10-09T17:01:18;20.20;99.90
20773;DHT22;10546;50.674;4.616;2023-10-09T17:04:12;20.20;99.90
20773;DHT22;10546;50.674;4.616;2023-10-09T17:10:45;20.10;99.90
20773;DHT22;10546;50.674;4.616;2023-10-09T17:13:26;20.00;99.90
20773;DHT22;10546;50.674;4.616;2023-10-09T17:15:54;19.90;99.90
20773;DHT22;10546;50.674;4.616;2023-10-09T17:18:22;19.70;99.90
20773;DHT22;10546;50.674;4.616;2023-10-09T17:20:51;19.70;99.90
20773;DHT22;10546;50.674;4.616;2023-10-09T17:23:37;19.60;99.90
20773;DHT22;10546;50.674;4.616;2023-10-09T17:26:11;19.60;99.90
20773;DHT22;10546;50.674;4.616;2023-10-09T17:28:55;19.50;99.90
20773;DHT22;10546;50.674;4.616;2023-10-09T17:31:26;19.40;99.90
20773;DHT22;10546;50.674;4.616;2023-10-09T17:33:52;19.30;99.90
20773;DHT22;10546;50.674;4.616;2023-10-09T17:36:21;19.20;99.90
20773;DHT22;10546;50.674;4.616;2023-10-09T17:38:47;19.10;99.90
20773;DHT22;10546;50.674;4.616;2023-10-09T17:41:19;19.10;99.90
20773;DHT22;10546;50.674;4.616;2023-10-09T17:43:48;19.10;99.90
20773;DHT22;10546;50.674;4.616;2023-10-09T17:46:15;19.00;99.90
20773;DHT22;10546;50.674;4.616;2023-10-09T17:48:43;19.00;99.90
20773;DHT22;10546;50.674;4.616;2023-10-09T17:51:16;18.90;99.90
20773;DHT22;10546;50.674;4.616;2023-10-09T17:53:44;18.80;99.90
20773;DHT22;10546;50.674;4.616;2023-10-09T17:56:11;18.80;99.90
20773;DHT22;10546;50.674;4.616;2023-10-09T17:58:56;18.60;99.90
20773;DHT22;10546;50.674;4.616;2023-10-09T18:01:29;18.60;99.90
20773;DHT22;10546;50.674;4.616;2023-10-09T18:03:56;18.50;99.90
20773;DHT22;10546;50.674;4.616;2023-10-09T18:06:24;18.50;99.90
20773;DHT22;10546;50.674;4.616;2023-10-09T18:08:52;18.40;99.90
20773;DHT22;10546;50.674;4.616;2023-10-09T18:11:18;18.40;99.90
20773;DHT22;10546;50.674;4.616;2023-10-09T18:13:43;18.40;99.90
20773;DHT22;10546;50.674;4.616;2023-10-09T18:16:12;18.30;99.90
20773;DHT22;10546;50.674;4.616;2023-10-09T18:18:39;18.20;99.90
20773;DHT22;10546;50.674;4.616;2023-10-09T18:21:06;18.20;99.90
20773;DHT22;10546;50.674;4.616;2023-10-09T18:23:32;18.00;99.90
20773;DHT22;10546;50.674;4.616;2023-10-09T18:26:01;18.10;99.90
20773;DHT22;10546;50.674;4.616;2023-10-09T18:28:31;18.00;99.90
20773;DHT22;10546;50.674;4.616;2023-10-09T18:31:01;17.90;99.90
20773;DHT22;10546;50.674;4.616;2023-10-09T18:33:31;17.90;99.90
20773;DHT22;10546;50.674;4.616;2023-10-09T18:35:58;18.00;99.90
20773;DHT22;10546;50.674;4.616;2023-10-09T18:38:29;18.00;99.90
20773;DHT22;10546;50.674;4.616;2023-10-09T18:40:54;17.90;99.90
20773;DHT22;10546;50.674;4.616;2023-10-09T18:43:21;17.90;99.90
20773;DHT22;10546;50.674;4.616;2023-10-09T18:45:48;17.90;99.90
20773;DHT22;10546;50.674;4.616;2023-10-09T18:48:14;17.90;99.90
20773;DHT22;10546;50.674;4.616;2023-10-09T18:50:43;17.90;99.90
20773;DHT22;10546;50.674;4.616;2023-10-09T18:53:10;17.80;99.90
20773;DHT22;10546;50.674;4.616;2023-10-09T18:55:38;17.70;99.90
20773;DHT22;10546;50.674;4.616;2023-10-09T18:58:05;17.70;99.90
20773;DHT22;10546;50.674;4.616;2023-10-09T19:00:41;17.70;99.90
20773;DHT22;10546;50.674;4.616;2023-10-09T19:03:15;17.60;99.90
20773;DHT22;10546;50.674;4.616;2023-10-09T19:05:45;17.50;99.90
20773;DHT22;10546;50.674;4.616;2023-10-09T19:08:18;17.60;99.90
20773;DHT22;10546;50.674;4.616;2023-10-09T19:10:46;17.50;99.90
20773;DHT22;10546;50.674;4.616;2023-10-09T19:13:11;17.50;99.90
20773;DHT22;10546;50.674;4.616;2023-10-09T19:15:37;17.40;99.90
20773;DHT22;10546;50.674;4.616;2023-10-09T19:18:07;17.40;99.90
20773;DHT22;10546;50.674;4.616;2023-10-09T19:20:40;17.40;99.90
20773;DHT22;10546;50.674;4.616;2023-10-09T19:23:06;17.40;99.90
20773;DHT22;10546;50.674;4.616;2023-10-09T19:25:34;17.30;99.90
20773;DHT22;10546;50.674;4.616;2023-10-09T19:28:02;17.30;99.90
20773;DHT22;10546;50.674;4.616;2023-10-09T19:30:33;17.30;99.90
20773;DHT22;10546;50.674;4.616;2023-10-09T19:33:02;17.20;99.90
20773;DHT22;10546;50.674;4.616;2023-10-09T19:35:31;17.20;99.90
20773;DHT22;10546;50.674;4.616;2023-10-09T19:37:58;17.20;99.90
20773;DHT22;10546;50.674;4.616;2023-10-09T19:40:25;17.20;99.90
20773;DHT22;10546;50.674;4.616;2023-10-09T19:42:52;17.20;99.90
20773;DHT22;10546;50.674;4.616;2023-10-09T19:45:18;17.10;99.90
20773;DHT22;10546;50.674;4.616;2023-10-09T19:47:50;17.10;99.90
20773;DHT22;10546;50.674;4.616;2023-10-09T19:50:15;17.00;99.90
20773;DHT22;10546;50.674;4.616;2023-10-09T19:52:42;17.00;99.90
20773;DHT22;10546;50.674;4.616;2023-10-09T19:55:08;16.90;99.90
20773;DHT22;10546;50.674;4.616;2023-10-09T19:57:34;16.90;99.90
20773;DHT22;10546;50.674;4.616;2023-10-09T20:00:05;16.80;99.90
20773;DHT22;10546;50.674;4.616;2023-10-09T20:02:34;16.80;99.90
20773;DHT22;10546;50.674;4.616;2023-10-09T20:05:01;16.80;99.90
20773;DHT22;10546;50.674;4.616;2023-10-09T20:07:28;16.80;99.90
20773;DHT22;10546;50.674;4.616;2023-10-09T20:09:53;16.80;99.90
20773;DHT22;10546;50.674;4.616;2023-10-09T20:12:24;16.70;99.90
20773;DHT22;10546;50.674;4.616;2023-10-09T20:14:55;16.60;99.90
20773;DHT22;10546;50.674;4.616;2023-10-09T20:17:21;16.60;99.90
20773;DHT22;10546;50.674;4.616;2023-10-09T20:19:49;16.60;99.90
20773;DHT22;10546;50.674;4.616;2023-10-09T20:22:20;16.60;99.90
20773;DHT22;10546;50.674;4.616;2023-10-09T20:24:46;16.50;99.90
20773;DHT22;10546;50.674;4.616;2023-10-09T20:27:12;16.50;99.90
20773;DHT22;10546;50.674;4.616;2023-10-09T20:29:38;16.50;99.90
20773;DHT22;10546;50.674;4.616;2023-10-09T20:32:07;16.40;99.90
20773;DHT22;10546;50.674;4.616;2023-10-09T20:34:37;16.40;99.90
20773;DHT22;10546;50.674;4.616;2023-10-09T20:37:04;16.40;99.90
20773;DHT22;10546;50.674;4.616;2023-10-09T20:39:30;16.40;99.90
20773;DHT22;10546;50.674;4.616;2023-10-09T20:41:58;16.30;99.90
20773;DHT22;10546;50.674;4.616;2023-10-09T20:44:23;16.30;99.90
20773;DHT22;10546;50.674;4.616;2023-10-09T20:52:19;16.20;99.90
20773;DHT22;10546;50.674;4.616;2023-10-09T20:54:45;16.20;99.90
20773;DHT22;10546;50.674;4.616;2023-10-09T20:57:13;16.20;99.90
20773;DHT22;10546;50.674;4.616;2023-10-09T20:59:58;16.20;99.90
20773;DHT22;10546;50.674;4.616;2023-10-09T21:03:11;16.20;99.90
20773;DHT22;10546;50.674;4.616;2023-10-09T21:05:45;16.10;99.90
20773;DHT22;10546;50.674;4.616;2023-10-09T21:08:11;16.00;99.90
20773;DHT22;10546;50.674;4.616;2023-10-09T21:10:37;16.00;99.90
20773;DHT22;10546;50.674;4.616;2023-10-09T21:13:17;16.00;99.90
20773;DHT22;10546;50.674;4.616;2023-10-09T21:18:55;16.00;99.90
20773;DHT22;10546;50.674;4.616;2023-10-09T21:21:21;16.00;99.90
